sensor_id;sensor_type;location;lat;lon;timestamp;temperature;humidity
20416;DHT22;10367;52.202;5.996;2023-04-19T00:01:58;8.30;99.90
20416;DHT22;10367;52.202;5.996;2023-04-19T00:04:28;8.20;99.90
20416;DHT22;10367;52.202;5.996;2023-04-19T00:06:57;8.20;99.90
20416;DHT22;10367;52.202;5.996;2023-04-19T00:09:26;8.20;99.90
20416;DHT22;10367;52.202;5.996;2023-04-19T00:11:55;8.30;99.90
20416;DHT22;10367;52.202;5.996;2023-04-19T00:14:24;8.30;99.90
20416;DHT22;10367;52.202;5.996;2023-04-19T00:16:52;8.30;99.90
20416;DHT22;10367;52.202;5.996;2023-04-19T00:19:23;8.30;99.90
20416;DHT22;10367;52.202;5.996;2023-04-19T00:21:52;8.20;99.90
20416;DHT22;10367;52.202;5.996;2023-04-19T00:24:21;8.20;99.90
20416;DHT22;10367;52.202;5.996;2023-04-19T00:26:49;8.20;99.90
20416;DHT22;10367;52.202;5.996;2023-04-19T00:29:18;8.20;99.90
20416;DHT22;10367;52.202;5.996;2023-04-19T00:31:47;8.30;99.90
20416;DHT22;10367;52.202;5.996;2023-04-19T00:34:26;8.40;99.90
20416;DHT22;10367;52.202;5.996;2023-04-19T00:36:57;8.50;99.90
20416;DHT22;10367;52.202;5.996;2023-04-19T00:39:26;8.60;99.90
20416;DHT22;10367;52.202;5.996;2023-04-19T00:41:55;8.70;99.90
20416;DHT22;10367;52.202;5.996;2023-04-19T00:44:25;8.70;99.90
20416;DHT22;10367;52.202;5.996;2023-04-19T00:46:55;8.80;99.90
20416;DHT22;10367;52.202;5.996;2023-04-19T00:49:26;8.80;99.90
20416;DHT22;10367;52.202;5.996;2023-04-19T00:51:55;8.80;99.90
20416;DHT22;10367;52.202;5.996;2023-04-19T00:54:24;8.70;99.90
20416;DHT22;10367;52.202;5.996;2023-04-19T00:56:53;8.70;99.90
20416;DHT22;10367;52.202;5.996;2023-04-19T00:59:21;8.70;99.90
20416;DHT22;10367;52.202;5.996;2023-04-19T01:01:51;8.70;99.90
20416;DHT22;10367;52.202;5.996;2023-04-19T01:04:20;8.70;99.90
20416;DHT22;10367;52.202;5.996;2023-04-19T01:06:50;8.70;99.90
20416;DHT22;10367;52.202;5.996;2023-04-19T01:09:19;8.70;99.90
20416;DHT22;10367;52.202;5.996;2023-04-19T01:11:48;8.60;99.90
20416;DHT22;10367;52.202;5.996;2023-04-19T01:14:17;8.60;99.90
20416;DHT22;10367;52.202;5.996;2023-04-19T01:16:45;8.60;99.90
20416;DHT22;10367;52.202;5.996;2023-04-19T01:19:15;8.60;99.90
20416;DHT22;10367;52.202;5.996;2023-04-19T01:21:44;8.60;99.90
20416;DHT22;10367;52.202;5.996;2023-04-19T01:24:15;8.60;99.90
20416;DHT22;10367;52.202;5.996;2023-04-19T01:26:44;8.70;99.90
20416;DHT22;10367;52.202;5.996;2023-04-19T01:29:12;8.70;99.90
20416;DHT22;10367;52.202;5.996;2023-04-19T01:31:42;8.80;99.90
20416;DHT22;10367;52.202;5.996;2023-04-19T01:34:15;8.80;99.90
20416;DHT22;10367;52.202;5.996;2023-04-19T01:36:44;8.80;99.90
20416;DHT22;10367;52.202;5.996;2023-04-19T01:39:14;8.80;99.90
20416;DHT22;10367;52.202;5.996;2023-04-19T01:41:43;8.90;99.90
20416;DHT22;10367;52.202;5.996;2023-04-19T01:44:12;8.90;99.90
20416;DHT22;10367;52.202;5.996;2023-04-19T01:46:41;8.90;99.90
20416;DHT22;10367;52.202;5.996;2023-04-19T01:49:09;8.90;99.90
20416;DHT22;10367;52.202;5.996;2023-04-19T01:51:38;9.00;99.90
20416;DHT22;10367;52.202;5.996;2023-04-19T01:54:07;9.00;99.90
20416;DHT22;10367;52.202;5.996;2023-04-19T01:56:37;9.00;99.90
20416;DHT22;10367;52.202;5.996;2023-04-19T01:59:05;9.00;99.90
20416;DHT22;10367;52.202;5.996;2023-04-19T02:01:34;9.10;99.90
20416;DHT22;10367;52.202;5.996;2023-04-19T02:04:03;9.10;99.90
20416;DHT22;10367;52.202;5.996;2023-04-19T02:06:32;9.10;99.90
20416;DHT22;10367;52.202;5.996;2023-04-19T02:09:00;9.10;99.90
20416;DHT22;10367;52.202;5.996;2023-04-19T02:11:29;9.20;99.90
20416;DHT22;10367;52.202;5.996;2023-04-19T02:13:59;9.10;99.90
20416;DHT22;10367;52.202;5.996;2023-04-19T02:16:28;9.20;99.90
20416;DHT22;10367;52.202;5.996;2023-04-19T02:18:57;9.20;99.90
20416;DHT22;10367;52.202;5.996;2023-04-19T02:21:25;9.20;99.90
20416;DHT22;10367;52.202;5.996;2023-04-19T02:23:54;9.20;99.90
20416;DHT22;10367;52.202;5.996;2023-04-19T02:26:23;9.20;99.90
20416;DHT22;10367;52.202;5.996;2023-04-19T02:28:52;9.20;99.90
20416;DHT22;10367;52.202;5.996;2023-04-19T02:31:22;9.20;99.90
20416;DHT22;10367;52.202;5.996;2023-04-19T02:33:50;9.30;99.90
20416;DHT22;10367;52.202;5.996;2023-04-19T02:36:19;9.30;99.90
20416;DHT22;10367;52.202;5.996;2023-04-19T02:38:48;9.30;99.90
20416;DHT22;10367;52.202;5.996;2023-04-19T02:41:17;9.30;99.90
20416;DHT22;10367;52.202;5.996;2023-04-19T02:43:45;9.30;99.90
20416;DHT22;10367;52.202;5.996;2023-04-19T02:46:14;9.30;99.90
20416;DHT22;10367;52.202;5.996;2023-04-19T02:48:46;9.30;99.90
20416;DHT22;10367;52.202;5.996;2023-04-19T02:51:15;9.30;99.90
20416;DHT22;10367;52.202;5.996;2023-04-19T02:53:43;9.30;99.90
20416;DHT22;10367;52.202;5.996;2023-04-19T02:56:12;9.20;99.90
20416;DHT22;10367;52.202;5.996;2023-04-19T02:58:41;9.10;99.90
20416;DHT22;10367;52.202;5.996;2023-04-19T03:01:10;9.00;99.90
20416;DHT22;10367;52.202;5.996;2023-04-19T03:03:39;8.90;99.90
20416;DHT22;10367;52.202;5.996;2023-04-19T03:06:09;8.80;99.90
20416;DHT22;10367;52.202;5.996;2023-04-19T03:08:38;8.70;99.90
20416;DHT22;10367;52.202;5.996;2023-04-19T03:11:06;8.70;99.90
20416;DHT22;10367;52.202;5.996;2023-04-19T03:13:35;8.60;99.90
20416;DHT22;10367;52.202;5.996;2023-04-19T03:16:04;8.60;99.90
20416;DHT22;10367;52.202;5.996;2023-04-19T03:18:33;8.50;99.90
20416;DHT22;10367;52.202;5.996;2023-04-19T03:21:02;8.50;99.90
20416;DHT22;10367;52.202;5.996;2023-04-19T03:23:33;8.40;99.90
20416;DHT22;10367;52.202;5.996;2023-04-19T03:26:01;8.30;99.90
20416;DHT22;10367;52.202;5.996;2023-04-19T03:28:31;8.30;99.90
20416;DHT22;10367;52.202;5.996;2023-04-19T03:30:59;8.30;99.90
20416;DHT22;10367;52.202;5.996;2023-04-19T03:33:28;8.30;99.90
20416;DHT22;10367;52.202;5.996;2023-04-19T03:35:57;8.30;99.90
20416;DHT22;10367;52.202;5.996;2023-04-19T03:38:26;8.30;99.90
20416;DHT22;10367;52.202;5.996;2023-04-19T03:40:57;8.30;99.90
20416;DHT22;10367;52.202;5.996;2023-04-19T03:43:25;8.10;99.90
20416;DHT22;10367;52.202;5.996;2023-04-19T03:45:54;8.10;99.90
20416;DHT22;10367;52.202;5.996;2023-04-19T03:48:23;8.10;99.90
20416;DHT22;10367;52.202;5.996;2023-04-19T03:50:51;8.00;99.90
20416;DHT22;10367;52.202;5.996;2023-04-19T03:53:20;8.00;99.90
20416;DHT22;10367;52.202;5.996;2023-04-19T03:55:52;8.00;99.90
20416;DHT22;10367;52.202;5.996;2023-04-19T03:58:22;7.90;99.90
20416;DHT22;10367;52.202;5.996;2023-04-19T04:00:51;7.90;99.90
20416;DHT22;10367;52.202;5.996;2023-04-19T04:03:20;7.90;99.90
20416;DHT22;10367;52.202;5.996;2023-04-19T04:05:49;7.90;99.90
20416;DHT22;10367;52.202;5.996;2023-04-19T04:08:21;7.90;99.90
20416;DHT22;10367;52.202;5.996;2023-04-19T04:10:51;7.90;99.90
20416;DHT22;10367;52.202;5.996;2023-04-19T04:13:27;7.90;99.90
20416;DHT22;10367;52.202;5.996;2023-04-19T04:15:57;7.90;99.90
20416;DHT22;10367;52.202;5.996;2023-04-19T04:18:28;7.90;99.90
20416;DHT22;10367;52.202;5.996;2023-04-19T04:21:10;7.90;99.90
20416;DHT22;10367;52.202;5.996;2023-04-19T04:23:46;8.00;99.90
20416;DHT22;10367;52.202;5.996;2023-04-19T04:26:20;8.00;99.90
20416;DHT22;10367;52.202;5.996;2023-04-19T04:28:53;8.00;99.90
20416;DHT22;10367;52.202;5.996;2023-04-19T04:31:21;8.10;99.90
20416;DHT22;10367;52.202;5.996;2023-04-19T04:33:52;8.10;99.90
20416;DHT22;10367;52.202;5.996;2023-04-19T04:36:21;8.20;99.90
20416;DHT22;10367;52.202;5.996;2023-04-19T04:38:50;8.20;99.90
20416;DHT22;10367;52.202;5.996;2023-04-19T04:41:26;8.20;99.90
20416;DHT22;10367;52.202;5.996;2023-04-19T04:43:59;8.30;99.90
20416;DHT22;10367;52.202;5.996;2023-04-19T04:46:50;8.30;99.90
20416;DHT22;10367;52.202;5.996;2023-04-19T04:49:26;8.30;99.90
20416;DHT22;10367;52.202;5.996;2023-04-19T04:51:55;8.40;99.90
20416;DHT22;10367;52.202;5.996;2023-04-19T04:54:27;8.40;99.90
20416;DHT22;10367;52.202;5.996;2023-04-19T04:56:57;8.40;99.90
20416;DHT22;10367;52.202;5.996;2023-04-19T04:59:27;8.50;99.90
20416;DHT22;10367;52.202;5.996;2023-04-19T05:01:56;8.50;99.90
20416;DHT22;10367;52.202;5.996;2023-04-19T05:04:25;8.50;99.90
20416;DHT22;10367;52.202;5.996;2023-04-19T05:06:54;8.60;99.90
20416;DHT22;10367;52.202;5.996;2023-04-19T05:09:23;8.60;99.90
20416;DHT22;10367;52.202;5.996;2023-04-19T05:11:52;8.60;99.90
20416;DHT22;10367;52.202;5.996;2023-04-19T05:14:20;8.60;99.90
20416;DHT22;10367;52.202;5.996;2023-04-19T05:16:51;8.70;99.90
20416;DHT22;10367;52.202;5.996;2023-04-19T05:19:20;8.70;99.90
20416;DHT22;10367;52.202;5.996;2023-04-19T05:21:48;8.70;99.90
20416;DHT22;10367;52.202;5.996;2023-04-19T05:24:20;8.70;99.90
20416;DHT22;10367;52.202;5.996;2023-04-19T05:26:48;8.80;99.90
20416;DHT22;10367;52.202;5.996;2023-04-19T05:29:17;8.90;99.90
20416;DHT22;10367;52.202;5.996;2023-04-19T05:31:46;8.90;99.90
20416;DHT22;10367;52.202;5.996;2023-04-19T05:34:16;8.90;99.90
20416;DHT22;10367;52.202;5.996;2023-04-19T05:36:48;8.90;99.90
20416;DHT22;10367;52.202;5.996;2023-04-19T05:39:19;8.90;99.90
20416;DHT22;10367;52.202;5.996;2023-04-19T05:41:48;9.00;99.90
20416;DHT22;10367;52.202;5.996;2023-04-19T05:44:16;9.00;99.90
20416;DHT22;10367;52.202;5.996;2023-04-19T05:46:45;9.10;99.90
20416;DHT22;10367;52.202;5.996;2023-04-19T05:49:15;9.10;99.90
20416;DHT22;10367;52.202;5.996;2023-04-19T05:51:44;9.10;99.90
20416;DHT22;10367;52.202;5.996;2023-04-19T05:54:12;9.00;99.90
20416;DHT22;10367;52.202;5.996;2023-04-19T05:56:42;9.00;99.90
20416;DHT22;10367;52.202;5.996;2023-04-19T05:59:11;9.00;99.90
20416;DHT22;10367;52.202;5.996;2023-04-19T06:01:40;8.90;99.90
20416;DHT22;10367;52.202;5.996;2023-04-19T06:04:09;8.90;99.90
20416;DHT22;10367;52.202;5.996;2023-04-19T06:06:39;8.80;99.90
20416;DHT22;10367;52.202;5.996;2023-04-19T06:09:08;8.70;99.90
20416;DHT22;10367;52.202;5.996;2023-04-19T06:11:36;8.70;99.90
20416;DHT22;10367;52.202;5.996;2023-04-19T06:14:18;8.70;99.90
20416;DHT22;10367;52.202;5.996;2023-04-19T06:16:47;8.60;99.90
20416;DHT22;10367;52.202;5.996;2023-04-19T06:19:16;8.60;99.90
20416;DHT22;10367;52.202;5.996;2023-04-19T06:21:46;8.60;99.90
20416;DHT22;10367;52.202;5.996;2023-04-19T06:24:15;8.60;99.90
20416;DHT22;10367;52.202;5.996;2023-04-19T06:26:44;8.60;99.90
20416;DHT22;10367;52.202;5.996;2023-04-19T06:29:14;8.60;99.90
20416;DHT22;10367;52.202;5.996;2023-04-19T06:31:43;8.60;99.90
20416;DHT22;10367;52.202;5.996;2023-04-19T06:34:12;8.60;99.90
20416;DHT22;10367;52.202;5.996;2023-04-19T06:36:42;8.70;99.90
20416;DHT22;10367;52.202;5.996;2023-04-19T06:39:12;8.60;99.90
20416;DHT22;10367;52.202;5.996;2023-04-19T06:41:42;8.60;99.90
20416;DHT22;10367;52.202;5.996;2023-04-19T06:44:11;8.60;99.90
20416;DHT22;10367;52.202;5.996;2023-04-19T06:46:41;8.70;99.90
20416;DHT22;10367;52.202;5.996;2023-04-19T06:49:10;8.70;99.90
20416;DHT22;10367;52.202;5.996;2023-04-19T06:51:48;8.80;99.90
20416;DHT22;10367;52.202;5.996;2023-04-19T06:54:18;8.80;99.90
20416;DHT22;10367;52.202;5.996;2023-04-19T06:56:48;8.80;99.90
20416;DHT22;10367;52.202;5.996;2023-04-19T06:59:20;8.80;99.90
20416;DHT22;10367;52.202;5.996;2023-04-19T07:01:50;8.80;99.90
20416;DHT22;10367;52.202;5.996;2023-04-19T07:04:19;8.80;99.90
20416;DHT22;10367;52.202;5.996;2023-04-19T07:06:51;8.80;99.90
20416;DHT22;10367;52.202;5.996;2023-04-19T07:09:21;8.80;99.90
20416;DHT22;10367;52.202;5.996;2023-04-19T07:11:50;8.90;99.90
20416;DHT22;10367;52.202;5.996;2023-04-19T07:14:19;8.90;99.90
20416;DHT22;10367;52.202;5.996;2023-04-19T07:16:58;9.00;99.90
20416;DHT22;10367;52.202;5.996;2023-04-19T07:19:32;9.10;99.90
20416;DHT22;10367;52.202;5.996;2023-04-19T07:22:03;9.10;99.90
20416;DHT22;10367;52.202;5.996;2023-04-19T07:24:48;9.10;99.90
20416;DHT22;10367;52.202;5.996;2023-04-19T07:27:18;9.20;99.90
20416;DHT22;10367;52.202;5.996;2023-04-19T07:29:47;9.20;99.90
20416;DHT22;10367;52.202;5.996;2023-04-19T07:32:19;9.30;99.90
20416;DHT22;10367;52.202;5.996;2023-04-19T07:34:48;9.50;99.90
20416;DHT22;10367;52.202;5.996;2023-04-19T07:37:18;9.60;99.90
20416;DHT22;10367;52.202;5.996;2023-04-19T07:39:48;9.50;99.90
20416;DHT22;10367;52.202;5.996;2023-04-19T07:42:18;9.50;99.90
20416;DHT22;10367;52.202;5.996;2023-04-19T07:44:47;9.50;99.90
20416;DHT22;10367;52.202;5.996;2023-04-19T07:47:17;9.70;99.90
20416;DHT22;10367;52.202;5.996;2023-04-19T07:49:51;9.70;99.90
20416;DHT22;10367;52.202;5.996;2023-04-19T07:52:22;9.80;99.90
20416;DHT22;10367;52.202;5.996;2023-04-19T07:54:53;9.90;99.90
20416;DHT22;10367;52.202;5.996;2023-04-19T07:57:24;9.90;99.90
20416;DHT22;10367;52.202;5.996;2023-04-19T07:59:55;9.90;99.90
20416;DHT22;10367;52.202;5.996;2023-04-19T08:02:25;10.00;99.90
20416;DHT22;10367;52.202;5.996;2023-04-19T08:04:55;10.10;99.90
20416;DHT22;10367;52.202;5.996;2023-04-19T08:07:29;10.20;99.90
20416;DHT22;10367;52.202;5.996;2023-04-19T08:10:02;10.20;99.90
20416;DHT22;10367;52.202;5.996;2023-04-19T08:12:32;10.20;99.90
20416;DHT22;10367;52.202;5.996;2023-04-19T08:15:13;10.30;99.90
20416;DHT22;10367;52.202;5.996;2023-04-19T08:17:46;10.20;99.90
20416;DHT22;10367;52.202;5.996;2023-04-19T08:20:17;10.20;99.90
20416;DHT22;10367;52.202;5.996;2023-04-19T08:22:48;10.20;99.90
20416;DHT22;10367;52.202;5.996;2023-04-19T08:25:21;10.30;99.90
20416;DHT22;10367;52.202;5.996;2023-04-19T08:27:53;10.30;99.90
20416;DHT22;10367;52.202;5.996;2023-04-19T08:30:24;10.40;99.90
20416;DHT22;10367;52.202;5.996;2023-04-19T08:32:53;10.40;99.90
20416;DHT22;10367;52.202;5.996;2023-04-19T08:35:23;10.50;99.90
20416;DHT22;10367;52.202;5.996;2023-04-19T08:37:52;10.60;99.90
20416;DHT22;10367;52.202;5.996;2023-04-19T08:40:23;10.70;99.90
20416;DHT22;10367;52.202;5.996;2023-04-19T08:42:52;10.70;99.90
20416;DHT22;10367;52.202;5.996;2023-04-19T08:45:23;10.70;99.90
20416;DHT22;10367;52.202;5.996;2023-04-19T08:47:56;10.70;99.90
20416;DHT22;10367;52.202;5.996;2023-04-19T08:50:28;10.60;99.90
20416;DHT22;10367;52.202;5.996;2023-04-19T08:53:11;10.60;99.90
20416;DHT22;10367;52.202;5.996;2023-04-19T08:55:55;10.70;99.90
20416;DHT22;10367;52.202;5.996;2023-04-19T08:58:28;10.90;99.60
20416;DHT22;10367;52.202;5.996;2023-04-19T09:01:19;11.00;99.30
20416;DHT22;10367;52.202;5.996;2023-04-19T09:04:03;11.10;99.90
20416;DHT22;10367;52.202;5.996;2023-04-19T09:06:54;11.30;99.90
20416;DHT22;10367;52.202;5.996;2023-04-19T09:09:25;11.60;99.30
20416;DHT22;10367;52.202;5.996;2023-04-19T09:11:58;11.70;98.40
20416;DHT22;10367;52.202;5.996;2023-04-19T09:14:28;11.80;97.30
20416;DHT22;10367;52.202;5.996;2023-04-19T09:17:11;11.80;97.70
20416;DHT22;10367;52.202;5.996;2023-04-19T09:19:47;11.80;95.50
20416;DHT22;10367;52.202;5.996;2023-04-19T09:22:17;11.70;96.00
20416;DHT22;10367;52.202;5.996;2023-04-19T09:24:45;11.70;96.40
20416;DHT22;10367;52.202;5.996;2023-04-19T09:27:26;12.00;96.90
20416;DHT22;10367;52.202;5.996;2023-04-19T09:29:58;12.00;96.90
20416;DHT22;10367;52.202;5.996;2023-04-19T09:32:28;12.00;96.40
20416;DHT22;10367;52.202;5.996;2023-04-19T09:34:58;12.00;96.30
20416;DHT22;10367;52.202;5.996;2023-04-19T09:37:27;12.10;96.20
20416;DHT22;10367;52.202;5.996;2023-04-19T09:39:58;12.30;93.80
20416;DHT22;10367;52.202;5.996;2023-04-19T09:42:46;12.50;94.40
20416;DHT22;10367;52.202;5.996;2023-04-19T09:45:17;12.50;91.30
20416;DHT22;10367;52.202;5.996;2023-04-19T09:48:00;12.40;93.50
20416;DHT22;10367;52.202;5.996;2023-04-19T09:50:30;12.50;92.80
20416;DHT22;10367;52.202;5.996;2023-04-19T09:53:09;12.70;92.00
20416;DHT22;10367;52.202;5.996;2023-04-19T09:55:39;12.90;92.80
20416;DHT22;10367;52.202;5.996;2023-04-19T09:58:28;13.00;92.60
20416;DHT22;10367;52.202;5.996;2023-04-19T10:01:00;13.10;90.80
20416;DHT22;10367;52.202;5.996;2023-04-19T10:03:44;13.10;91.00
20416;DHT22;10367;52.202;5.996;2023-04-19T10:06:15;12.90;91.10
20416;DHT22;10367;52.202;5.996;2023-04-19T10:08:49;13.10;91.00
20416;DHT22;10367;52.202;5.996;2023-04-19T10:11:18;13.30;90.70
20416;DHT22;10367;52.202;5.996;2023-04-19T10:13:52;13.60;90.70
20416;DHT22;10367;52.202;5.996;2023-04-19T10:16:24;13.70;86.20
20416;DHT22;10367;52.202;5.996;2023-04-19T10:18:54;13.70;85.10
20416;DHT22;10367;52.202;5.996;2023-04-19T10:21:25;13.80;84.50
20416;DHT22;10367;52.202;5.996;2023-04-19T10:23:55;13.90;83.20
20416;DHT22;10367;52.202;5.996;2023-04-19T10:26:25;14.00;84.70
20416;DHT22;10367;52.202;5.996;2023-04-19T10:28:55;14.00;79.50
20416;DHT22;10367;52.202;5.996;2023-04-19T10:31:25;14.00;76.60
20416;DHT22;10367;52.202;5.996;2023-04-19T10:33:54;13.90;75.80
20416;DHT22;10367;52.202;5.996;2023-04-19T10:36:29;14.00;72.90
20416;DHT22;10367;52.202;5.996;2023-04-19T10:38:58;13.90;72.70
20416;DHT22;10367;52.202;5.996;2023-04-19T10:41:55;14.00;74.50
20416;DHT22;10367;52.202;5.996;2023-04-19T10:44:26;14.10;73.40
20416;DHT22;10367;52.202;5.996;2023-04-19T10:46:55;14.40;74.10
20416;DHT22;10367;52.202;5.996;2023-04-19T10:49:24;14.40;73.00
20416;DHT22;10367;52.202;5.996;2023-04-19T10:51:53;14.20;70.20
20416;DHT22;10367;52.202;5.996;2023-04-19T10:54:27;14.10;69.70
20416;DHT22;10367;52.202;5.996;2023-04-19T10:56:59;14.10;68.10
20416;DHT22;10367;52.202;5.996;2023-04-19T10:59:32;14.20;68.60
20416;DHT22;10367;52.202;5.996;2023-04-19T11:02:02;14.40;69.30
20416;DHT22;10367;52.202;5.996;2023-04-19T11:07:41;14.70;68.90
20416;DHT22;10367;52.202;5.996;2023-04-19T11:10:10;15.00;69.80
20416;DHT22;10367;52.202;5.996;2023-04-19T11:12:43;14.80;70.60
20416;DHT22;10367;52.202;5.996;2023-04-19T11:15:13;14.80;69.90
20416;DHT22;10367;52.202;5.996;2023-04-19T11:17:42;14.80;68.80
20416;DHT22;10367;52.202;5.996;2023-04-19T11:20:11;14.70;69.50
20416;DHT22;10367;52.202;5.996;2023-04-19T11:22:43;14.60;70.90
20416;DHT22;10367;52.202;5.996;2023-04-19T11:25:13;14.80;70.40
20416;DHT22;10367;52.202;5.996;2023-04-19T11:27:44;15.00;70.10
20416;DHT22;10367;52.202;5.996;2023-04-19T11:30:16;14.90;70.10
20416;DHT22;10367;52.202;5.996;2023-04-19T11:32:47;14.80;68.00
20416;DHT22;10367;52.202;5.996;2023-04-19T11:35:19;14.70;68.40
20416;DHT22;10367;52.202;5.996;2023-04-19T11:37:48;14.80;66.50
20416;DHT22;10367;52.202;5.996;2023-04-19T11:40:18;15.00;65.60
20416;DHT22;10367;52.202;5.996;2023-04-19T11:42:55;15.00;64.60
20416;DHT22;10367;52.202;5.996;2023-04-19T11:45:26;15.20;64.50
20416;DHT22;10367;52.202;5.996;2023-04-19T11:48:01;15.20;64.10
20416;DHT22;10367;52.202;5.996;2023-04-19T11:50:35;15.40;65.20
20416;DHT22;10367;52.202;5.996;2023-04-19T11:53:12;15.40;65.10
20416;DHT22;10367;52.202;5.996;2023-04-19T11:55:42;15.30;66.20
20416;DHT22;10367;52.202;5.996;2023-04-19T11:58:25;15.30;66.80
20416;DHT22;10367;52.202;5.996;2023-04-19T12:01:01;15.50;62.90
20416;DHT22;10367;52.202;5.996;2023-04-19T12:03:33;15.70;63.40
20416;DHT22;10367;52.202;5.996;2023-04-19T12:06:02;15.50;66.10
20416;DHT22;10367;52.202;5.996;2023-04-19T12:08:36;15.50;65.30
20416;DHT22;10367;52.202;5.996;2023-04-19T12:11:05;15.80;65.50
20416;DHT22;10367;52.202;5.996;2023-04-19T12:13:35;15.70;64.30
20416;DHT22;10367;52.202;5.996;2023-04-19T12:16:06;15.80;65.30
20416;DHT22;10367;52.202;5.996;2023-04-19T12:18:48;15.70;65.60
20416;DHT22;10367;52.202;5.996;2023-04-19T12:21:27;15.80;64.50
20416;DHT22;10367;52.202;5.996;2023-04-19T12:23:57;15.70;65.80
20416;DHT22;10367;52.202;5.996;2023-04-19T12:26:27;15.70;67.00
20416;DHT22;10367;52.202;5.996;2023-04-19T12:28:58;15.90;65.60
20416;DHT22;10367;52.202;5.996;2023-04-19T12:31:30;15.90;66.30
20416;DHT22;10367;52.202;5.996;2023-04-19T12:34:00;15.70;65.50
20416;DHT22;10367;52.202;5.996;2023-04-19T12:36:28;15.60;65.50
20416;DHT22;10367;52.202;5.996;2023-04-19T12:38:57;16.00;66.40
20416;DHT22;10367;52.202;5.996;2023-04-19T12:41:26;16.10;64.90
20416;DHT22;10367;52.202;5.996;2023-04-19T12:43:55;16.00;65.50
20416;DHT22;10367;52.202;5.996;2023-04-19T12:46:23;16.00;65.60
20416;DHT22;10367;52.202;5.996;2023-04-19T12:48:54;15.80;64.20
20416;DHT22;10367;52.202;5.996;2023-04-19T12:51:22;15.80;64.60
20416;DHT22;10367;52.202;5.996;2023-04-19T12:53:51;15.70;65.60
20416;DHT22;10367;52.202;5.996;2023-04-19T12:56:23;16.00;65.00
20416;DHT22;10367;52.202;5.996;2023-04-19T12:58:52;16.30;64.30
20416;DHT22;10367;52.202;5.996;2023-04-19T13:01:21;16.60;63.20
20416;DHT22;10367;52.202;5.996;2023-04-19T13:03:50;16.90;62.90
20416;DHT22;10367;52.202;5.996;2023-04-19T13:06:21;16.90;62.40
20416;DHT22;10367;52.202;5.996;2023-04-19T13:08:50;16.90;62.00
20416;DHT22;10367;52.202;5.996;2023-04-19T13:11:21;16.80;60.20
20416;DHT22;10367;52.202;5.996;2023-04-19T13:13:50;16.70;60.20
20416;DHT22;10367;52.202;5.996;2023-04-19T13:16:20;16.80;60.90
20416;DHT22;10367;52.202;5.996;2023-04-19T13:18:51;16.70;61.30
20416;DHT22;10367;52.202;5.996;2023-04-19T13:21:22;16.80;61.40
20416;DHT22;10367;52.202;5.996;2023-04-19T13:23:51;16.90;60.60
20416;DHT22;10367;52.202;5.996;2023-04-19T13:26:19;17.10;61.90
20416;DHT22;10367;52.202;5.996;2023-04-19T13:28:49;17.40;61.50
20416;DHT22;10367;52.202;5.996;2023-04-19T13:31:18;17.30;60.10
20416;DHT22;10367;52.202;5.996;2023-04-19T13:33:47;17.20;60.20
20416;DHT22;10367;52.202;5.996;2023-04-19T13:36:15;17.10;60.30
20416;DHT22;10367;52.202;5.996;2023-04-19T13:38:46;17.30;60.30
20416;DHT22;10367;52.202;5.996;2023-04-19T13:41:15;17.30;60.90
20416;DHT22;10367;52.202;5.996;2023-04-19T13:43:44;17.10;60.00
20416;DHT22;10367;52.202;5.996;2023-04-19T13:46:13;16.90;59.20
20416;DHT22;10367;52.202;5.996;2023-04-19T13:48:42;16.80;60.40
20416;DHT22;10367;52.202;5.996;2023-04-19T13:51:13;16.60;59.40
20416;DHT22;10367;52.202;5.996;2023-04-19T13:53:41;16.80;60.00
20416;DHT22;10367;52.202;5.996;2023-04-19T13:56:11;16.60;60.20
20416;DHT22;10367;52.202;5.996;2023-04-19T13:58:41;16.50;59.80
20416;DHT22;10367;52.202;5.996;2023-04-19T14:01:13;16.60;61.00
20416;DHT22;10367;52.202;5.996;2023-04-19T14:03:41;16.60;61.30
20416;DHT22;10367;52.202;5.996;2023-04-19T14:06:10;16.60;61.10
20416;DHT22;10367;52.202;5.996;2023-04-19T14:08:39;16.60;62.00
20416;DHT22;10367;52.202;5.996;2023-04-19T14:11:12;16.70;62.10
20416;DHT22;10367;52.202;5.996;2023-04-19T14:13:40;16.80;62.20
20416;DHT22;10367;52.202;5.996;2023-04-19T14:16:10;16.80;62.20
20416;DHT22;10367;52.202;5.996;2023-04-19T14:18:41;16.90;62.50
20416;DHT22;10367;52.202;5.996;2023-04-19T14:21:12;17.10;62.10
20416;DHT22;10367;52.202;5.996;2023-04-19T14:23:41;16.90;62.30
20416;DHT22;10367;52.202;5.996;2023-04-19T14:26:14;16.70;61.70
20416;DHT22;10367;52.202;5.996;2023-04-19T14:28:42;16.50;62.50
20416;DHT22;10367;52.202;5.996;2023-04-19T14:31:13;16.70;62.50
20416;DHT22;10367;52.202;5.996;2023-04-19T14:33:42;16.80;62.30
20416;DHT22;10367;52.202;5.996;2023-04-19T14:36:10;16.90;62.40
20416;DHT22;10367;52.202;5.996;2023-04-19T14:38:39;16.80;62.60
20416;DHT22;10367;52.202;5.996;2023-04-19T14:41:08;16.80;63.20
20416;DHT22;10367;52.202;5.996;2023-04-19T14:43:38;16.90;62.70
20416;DHT22;10367;52.202;5.996;2023-04-19T14:46:06;16.80;61.60
20416;DHT22;10367;52.202;5.996;2023-04-19T14:48:35;16.50;62.60
20416;DHT22;10367;52.202;5.996;2023-04-19T14:51:04;16.70;62.90
20416;DHT22;10367;52.202;5.996;2023-04-19T14:53:33;16.60;62.60
20416;DHT22;10367;52.202;5.996;2023-04-19T14:56:03;16.70;62.90
20416;DHT22;10367;52.202;5.996;2023-04-19T14:58:32;16.90;62.40
20416;DHT22;10367;52.202;5.996;2023-04-19T15:01:10;17.00;62.90
20416;DHT22;10367;52.202;5.996;2023-04-19T15:03:39;16.80;62.10
20416;DHT22;10367;52.202;5.996;2023-04-19T15:06:08;16.90;63.00
20416;DHT22;10367;52.202;5.996;2023-04-19T15:08:37;17.00;62.90
20416;DHT22;10367;52.202;5.996;2023-04-19T15:11:07;16.80;62.70
20416;DHT22;10367;52.202;5.996;2023-04-19T15:13:36;17.00;63.10
20416;DHT22;10367;52.202;5.996;2023-04-19T15:16:05;17.20;62.30
20416;DHT22;10367;52.202;5.996;2023-04-19T15:18:36;17.10;62.40
20416;DHT22;10367;52.202;5.996;2023-04-19T15:21:05;16.80;63.00
20416;DHT22;10367;52.202;5.996;2023-04-19T15:23:34;16.90;63.20
20416;DHT22;10367;52.202;5.996;2023-04-19T15:26:03;16.70;63.00
20416;DHT22;10367;52.202;5.996;2023-04-19T15:28:32;16.60;62.80
20416;DHT22;10367;52.202;5.996;2023-04-19T15:31:04;16.50;62.60
20416;DHT22;10367;52.202;5.996;2023-04-19T15:33:35;16.40;63.60
20416;DHT22;10367;52.202;5.996;2023-04-19T15:36:05;16.50;63.60
20416;DHT22;10367;52.202;5.996;2023-04-19T15:38:34;16.70;62.90
20416;DHT22;10367;52.202;5.996;2023-04-19T15:41:03;16.40;62.90
20416;DHT22;10367;52.202;5.996;2023-04-19T15:43:31;16.40;63.50
20416;DHT22;10367;52.202;5.996;2023-04-19T15:46:00;16.40;64.30
20416;DHT22;10367;52.202;5.996;2023-04-19T15:48:29;16.60;63.80
20416;DHT22;10367;52.202;5.996;2023-04-19T15:50:59;16.60;63.60
20416;DHT22;10367;52.202;5.996;2023-04-19T15:53:29;16.60;63.70
20416;DHT22;10367;52.202;5.996;2023-04-19T15:55:57;16.80;63.60
20416;DHT22;10367;52.202;5.996;2023-04-19T15:58:27;16.80;63.50
20416;DHT22;10367;52.202;5.996;2023-04-19T16:00:55;16.60;63.70
20416;DHT22;10367;52.202;5.996;2023-04-19T16:03:24;16.40;63.70